РПИ Тбилиси*

Грузинский район полетной информации (UGGG, УГГГ) обеспечивает организацию воздушного движения в воздушном пространстве Грузии и над юго-восточной частью акватории Черного моря в сети VATSIM.

В состав РПИ входят три международных аэропорта, один из которых также считается региональным аэропортом Турции (Тбилиси, Батуми и Кутаиси), два региональных (Местия и Амбролаури), а также два аэродрома авиации общего назначения (Телави и Натахтари).

РПИ Тбилиси является частью макрорегиона Кавказ в составе сети VATSIM.

В воздушном пространстве Грузии и Армении по соглашению обеих стран в верхнем воздушном пространстве возможно применение Free-Route при планировании маршрута. На схеме ниже представлены точки на границе воздушного пространства Грузии. Точки на границе с воздушным пространством Армении (отмечены как (I)) обязательно должны быть указаны в плане полета, если полет проходит через оба воздушных пространства по технологии Free-Route.

Tbilisi Radar (UGGG_CTR) sectors

United 125.125

Georgian Free-Route waypoints on the borders of the airspace

Руководство

Grigori Badalov*

Куратор
Инструкторы РПИ
Grigori Badalov (Instructor)
Входит в состав
Кавказ

Диспетчеры РПИ

Диспетчер Рейтинг Допуски *
Dallon Pereira Supervisor UGGG_CTR
Muhammad Abdullah Controller UGGG_CTR
Muhammad Nabil Controller UGGG_CTR
George Kalandadze Controller UGGG_CTR
Grigori Badalov Instructor UGGG_CTR
Ivan Chernov Senior Controller UGGG_CTR
Valeriy Polostyanoy Instructor UGGG_CTR
Nika Avdalov Student 2 UGKO_TWR, UGSB_TWR, UGTB_TWR
Suwan Kim Student 2 UGTB_TWR

Аэропорты РПИ

ICAO Город Название Погода
UGTB Тбилиси Тбилиси UGTB 100700Z 10003KT 010V140 9999 OVC019 03/M01 Q1027 NOSIG
UGSB Батуми Батуми UGSB 100700Z 14018KT CAVOK 13/04 Q1021 NOSIG
UGKO Кутаиси Кутаиси UGKO 100700Z 09015KT CAVOK 09/01 Q1022 NOSIG
UGAM Амбролаури Амбролаури UGAM 100700Z 27004KT CAVOK 01/00 Q1024
UGMS Местия Местия UGMS 100700Z 18001KT 9999 FEW100 M01/M06 Q1025
UGSA Натахтари Натахтари
UGGT Телави Телави